Austin Reinauer — WCX8055 — position and weather

sailwx.info

Track history (hours):
 
Tides and Currents Weather Stations Pressure Air Temp Water Temp Dewpoint Dewpoint Depression Visibility Wind Speed Wind Dir Waves Ship Positions

Austin Reinauer

Owner: REINAUER TRANSPORTATION CO. LLC, STATEN ISLAND, NY. More information available from US FCC via Universal Licensing System and Coast Guard Vessel Documentation Center.

Last reported at 2017-Oct-19 14:47 UTC. Time now 2017-Oct-19 15:16 UTC.
Position N 40°33' W 074°15'.

Length 33 m; draft 6.7 m.

Type: . MMSI: 366739920.

Date/timePositionNaut miles runAvg speedWind from/ knotsBaromVisibWave heightAir tempDewpointWater temp
2017-Oct-19 14:47N 40°33' W 074°15'0 0.0
2017-Oct-19 14:20N 40°33' W 074°15'0 0.0
2017-Oct-19 13:59N 40°33' W 074°15'0 0.0
2017-Oct-19 13:29N 40°33' W 074°15'0 0.0
2017-Oct-19 12:59N 40°33' W 074°15'0 0.0
2017-Oct-19 12:29N 40°33' W 074°15'0 0.0
2017-Oct-19 11:59N 40°33' W 074°15'0 0.0
2017-Oct-19 11:29N 40°33' W 074°15'0 0.0
2017-Oct-19 10:59N 40°33' W 074°15'0 0.0
2017-Oct-19 10:26N 40°33' W 074°15'0 0.0
2017-Oct-19 10:00N 40°33' W 074°15'0 0.0
2017-Oct-19 09:30N 40°33' W 074°15'0 0.0
2017-Oct-19 09:00N 40°33' W 074°15'0 0.0
2017-Oct-19 08:30N 40°33' W 074°15'0 0.0
2017-Oct-19 08:00N 40°33' W 074°15'0 0.0
2017-Oct-19 07:30N 40°33' W 074°15'0 0.0
2017-Oct-19 07:00N 40°33' W 074°15'0 0.0
2017-Oct-19 06:30N 40°33' W 074°15'0 0.0
2017-Oct-19 06:01N 40°33' W 074°15'0 0.0
2017-Oct-19 05:30N 40°33' W 074°15'0 0.0
2017-Oct-19 05:00N 40°33' W 074°15'0 0.0
2017-Oct-19 04:29N 40°33' W 074°15'0 0.0
2017-Oct-19 03:57N 40°33' W 074°15'0 0.0
2017-Oct-19 03:27N 40°33' W 074°15'0 0.0
2017-Oct-19 03:00N 40°33' W 074°15'0 0.0
2017-Oct-19 02:30N 40°33' W 074°15'0 0.0
2017-Oct-18 20:22N 40°33' W 074°15'0 0.1
2017-Oct-18 19:59N 40°33' W 074°15'1 2.2
2017-Oct-18 19:30N 40°33' W 074°14'3 6.5
2017-Oct-18 19:00N 40°36' W 074°12'3 6.9
2017-Oct-18 18:30N 40°39' W 074°09'3 5.3
2017-Oct-18 18:00N 40°39' W 074°05'2 4.1
2017-Oct-18 17:30N 40°39' W 074°03'0 0.7
2017-Oct-18 17:00N 40°40' W 074°03'0 0.6
2017-Oct-18 16:30N 40°40' W 074°03'4 9.0
2017-Oct-18 16:00N 40°43' W 073°58'611.9
2017-Oct-18 15:30N 40°48' W 073°54'5 9.9
2017-Oct-18 14:58N 40°48' W 073°47'4510.2
2017-Oct-18 10:33N 41°11' W 072°56'110.0
2017-Oct-18 10:24N 41°12' W 072°54'34 1.1
2017-Oct-17 02:41N 40°57' W 073°34'3 8.5
2017-Oct-17 02:17N 40°55' W 073°38'3 8.3
2017-Oct-17 01:58N 40°54' W 073°41'4 8.2
2017-Oct-17 01:30N 40°51' W 073°45'4 7.8
2017-Oct-17 01:00N 40°48' W 073°47'4 8.1
2017-Oct-17 00:30N 40°48' W 073°53'4 7.2
2017-Oct-16 23:59N 40°46' W 073°57'4 7.7
2017-Oct-16 23:30N 40°43' W 073°59'4 7.6
2017-Oct-16 23:00N 40°40' W 074°02'1 2.0
2017-Oct-16 22:30N 40°39' W 074°03'0 0.0
2017-Oct-16 22:00N 40°39' W 074°03'0 0.0
2017-Oct-16 21:30N 40°39' W 074°03'0 0.1
2017-Oct-16 21:00N 40°39' W 074°03'2 3.2
2017-Oct-16 20:30N 40°39' W 074°05'3 6.1
2017-Oct-16 20:00N 40°39' W 074°09'3 5.4
2017-Oct-16 19:30N 40°38' W 074°12'0 0.0
2017-Oct-16 18:59N 40°38' W 074°12'0 0.0
2017-Oct-16 18:26N 40°38' W 074°12'0 0.0
2017-Oct-16 17:59N 40°38' W 074°12'0 0.0
2017-Oct-16 17:29N 40°38' W 074°12'0 0.0
2017-Oct-16 16:59N 40°38' W 074°12'0 0.0
2017-Oct-16 16:29N 40°38' W 074°12'0 0.0
2017-Oct-16 15:59N 40°38' W 074°12'0 0.0
2017-Oct-16 15:29N 40°38' W 074°12'0 0.0
2017-Oct-16 14:56N 40°38' W 074°12'0 0.0
2017-Oct-16 13:59N 40°38' W 074°12'0 0.0
2017-Oct-16 13:29N 40°38' W 074°12'0 0.0
2017-Oct-16 12:59N 40°38' W 074°12'0 0.0
2017-Oct-16 12:29N 40°38' W 074°12'0 0.0
2017-Oct-16 12:00N 40°38' W 074°12'0 0.0
2017-Oct-16 11:29N 40°38' W 074°12'0 0.0
2017-Oct-16 11:00N 40°38' W 074°12'0 0.0
2017-Oct-16 10:30N 40°38' W 074°12'0 0.0
2017-Oct-16 10:00N 40°38' W 074°12'0 0.0
2017-Oct-16 09:30N 40°38' W 074°12'0 0.0
2017-Oct-16 09:00N 40°38' W 074°12'0 0.0
2017-Oct-16 08:29N 40°38' W 074°12'0 0.0
2017-Oct-16 08:00N 40°38' W 074°12'0 0.0
2017-Oct-16 07:30N 40°38' W 074°12'0 0.0
2017-Oct-16 07:00N 40°38' W 074°12'0 0.0
2017-Oct-16 06:30N 40°38' W 074°12'0 0.0
2017-Oct-16 06:00N 40°38' W 074°12'0 0.0
2017-Oct-16 05:30N 40°38' W 074°12'0 0.0
2017-Oct-16 05:01N 40°38' W 074°12'0 0.0
2017-Oct-16 04:30N 40°38' W 074°12'0 0.0
2017-Oct-16 04:00N 40°38' W 074°12'0 0.0
2017-Oct-16 03:30N 40°38' W 074°12'0 0.0
2017-Oct-16 03:00N 40°38' W 074°12'0 0.0
2017-Oct-16 02:30N 40°38' W 074°12'0 0.0
2017-Oct-16 02:01N 40°38' W 074°12'0 0.3
2017-Oct-16 01:30N 40°38' W 074°12'1 1.6
2017-Oct-16 01:01N 40°37' W 074°12'1 2.6
2017-Oct-16 00:29N 40°36' W 074°12'1 1.3
2017-Oct-16 00:01N 40°35' W 074°13'0 0.0
2017-Oct-15 23:30N 40°35' W 074°13'0 0.0
2017-Oct-15 23:00N 40°35' W 074°13'0 0.0
2017-Oct-15 22:30N 40°35' W 074°13'0 0.0
2017-Oct-15 22:00N 40°35' W 074°13'0 0.0
2017-Oct-15 21:30N 40°35' W 074°13'0 0.0
2017-Oct-15 21:00N 40°35' W 074°13'0 0.0
2017-Oct-15 20:30N 40°35' W 074°13'0 0.0
2017-Oct-15 19:58N 40°35' W 074°13'0 0.0
2017-Oct-15 19:30N 40°35' W 074°13'0 0.0
2017-Oct-15 18:59N 40°35' W 074°13'0 0.0
2017-Oct-15 18:30N 40°35' W 074°13'0 0.0
2017-Oct-15 18:00N 40°35' W 074°13'0 0.0
2017-Oct-15 17:30N 40°35' W 074°13'0 0.0
2017-Oct-15 17:00N 40°35' W 074°13'0 0.0
2017-Oct-15 16:30N 40°35' W 074°13'0 0.0
2017-Oct-15 16:00N 40°35' W 074°13'0 0.0
2017-Oct-15 15:30N 40°35' W 074°13'0 0.0
2017-Oct-15 15:00N 40°35' W 074°13'0 0.0
2017-Oct-15 14:00N 40°35' W 074°13'0 0.0
2017-Oct-15 13:30N 40°35' W 074°13'0 0.0
2017-Oct-15 12:59N 40°35' W 074°13'0 0.0
2017-Oct-15 12:30N 40°35' W 074°13'0 0.0
2017-Oct-15 12:00N 40°35' W 074°13'0 0.0
2017-Oct-15 11:30N 40°35' W 074°13'0 0.0
2017-Oct-15 11:00N 40°35' W 074°13'0 0.0
2017-Oct-15 10:30N 40°35' W 074°13'0 0.0
2017-Oct-15 10:00N 40°35' W 074°13'0 0.0
2017-Oct-15 09:30N 40°35' W 074°13'0 0.0
2017-Oct-15 09:00N 40°35' W 074°13'0 0.0
2017-Oct-15 08:30N 40°35' W 074°13'0 0.0
2017-Oct-15 08:00N 40°35' W 074°13'0 0.0
2017-Oct-15 07:30N 40°35' W 074°13'0 0.0
2017-Oct-15 07:00N 40°35' W 074°13'0 0.0
2017-Oct-15 06:30N 40°35' W 074°13'0 0.0
2017-Oct-15 06:00N 40°35' W 074°13'0 0.1
2017-Oct-15 05:30N 40°35' W 074°13'2 4.1
2017-Oct-15 05:01N 40°37' W 074°12'3 5.5
2017-Oct-15 04:31N 40°39' W 074°09'5 9.5
2017-Oct-15 04:00N 40°40' W 074°03'510.3
2017-Oct-15 03:31N 40°43' W 073°58'510.4
2017-Oct-15 03:00N 40°48' W 073°55'6 9.4
2017-Oct-15 02:24N 40°48' W 073°47'3810.0
2017-Oct-14 22:34N 41°07' W 073°03'610.7
2017-Oct-14 21:59N 41°11' W 072°57'37 1.6
2017-Oct-13 22:30N 40°54' W 073°40'4 8.4
2017-Oct-13 22:00N 40°52' W 073°45'4 8.3
2017-Oct-13 21:29N 40°48' W 073°47'4 8.4
2017-Oct-13 21:00N 40°48' W 073°53'4 6.9
2017-Oct-13 20:30N 40°46' W 073°57'3 6.5
2017-Oct-13 20:00N 40°43' W 073°58'4 8.5
2017-Oct-13 19:30N 40°40' W 074°02'4 6.9
2017-Oct-13 19:00N 40°39' W 074°06'4 7.5
2017-Oct-13 18:29N 40°39' W 074°11'2 4.9
2017-Oct-13 18:00N 40°36' W 074°12'4 6.3
2017-Oct-13 17:22N 40°33' W 074°15'1 2.6
2017-Oct-13 17:00N 40°32' W 074°15'0 0.0
2017-Oct-13 16:23N 40°32' W 074°15'0 0.0
2017-Oct-13 15:59N 40°32' W 074°15'0 0.0
2017-Oct-13 15:29N 40°32' W 074°15'0 0.0
2017-Oct-13 14:59N 40°32' W 074°15'0 0.0
2017-Oct-13 14:11N 40°32' W 074°15'0 0.0
2017-Oct-13 13:59N 40°32' W 074°15'0 0.0
2017-Oct-13 12:59N 40°32' W 074°15'0 0.0
2017-Oct-13 12:29N 40°32' W 074°15'0 0.0
2017-Oct-13 11:53N 40°32' W 074°15'0 0.0
2017-Oct-13 11:17N 40°32' W 074°15'0 0.0
2017-Oct-13 10:59N 40°32' W 074°15'0 0.0
2017-Oct-13 10:29N 40°32' W 074°15'0 0.0
2017-Oct-13 09:59N 40°32' W 074°15'0 0.0
2017-Oct-13 09:29N 40°32' W 074°15'0 0.0
2017-Oct-13 08:41N 40°32' W 074°15'0 0.0
2017-Oct-13 08:29N 40°32' W 074°15'0 0.0
2017-Oct-13 07:59N 40°32' W 074°15'0 0.0
2017-Oct-13 06:17N 40°32' W 074°15'0 0.0
2017-Oct-13 05:59N 40°32' W 074°15'0 0.0
2017-Oct-13 05:29N 40°32' W 074°15'0 0.0
2017-Oct-13 04:59N 40°32' W 074°15'0 0.0
2017-Oct-13 04:23N 40°32' W 074°15'0 0.0
2017-Oct-13 03:53N 40°32' W 074°15'0 0.0
2017-Oct-13 02:47N 40°32' W 074°15'0 0.0
2017-Oct-13 02:23N 40°32' W 074°15'0 0.0
2017-Oct-12 22:41N 40°32' W 074°15'0 0.0
2017-Oct-12 22:17N 40°32' W 074°15'0 0.0
2017-Oct-12 21:47N 40°32' W 074°15'0 0.0
2017-Oct-12 21:29N 40°32' W 074°15'0 0.0
2017-Oct-12 20:59N 40°32' W 074°15'0 0.0
2017-Oct-12 19:17N 40°32' W 074°15'0 0.0
2017-Oct-12 18:59N 40°32' W 074°15'0 0.0
2017-Oct-12 18:29N 40°32' W 074°15'0 0.0
2017-Oct-12 17:59N 40°32' W 074°15'0 0.0
2017-Oct-12 16:41N 40°32' W 074°15'0 0.0
2017-Oct-12 16:17N 40°32' W 074°15'3 0.6
2017-Oct-12 10:54N 40°30' W 074°12'4 7.7
2017-Oct-12 10:22N 40°29' W 074°06'3 7.3
2017-Oct-12 10:00N 40°29' W 074°03'4 8.6
2017-Oct-12 09:30N 40°33' W 074°02'611.0
2017-Oct-12 09:00N 40°39' W 074°02'4 7.5
2017-Oct-12 08:30N 40°42' W 074°00'4 8.9
2017-Oct-12 07:59N 40°46' W 073°57'6 6.4
2017-Oct-12 07:07N 40°48' W 073°50'2 7.9
2017-Oct-12 06:48N 40°48' W 073°47'20 0.6
2017-Oct-10 22:28N 40°60' W 073°26'4 9.3
2017-Oct-10 22:00N 40°58' W 073°31'6 8.8
2017-Oct-10 21:18N 40°55' W 073°38'2 8.5
2017-Oct-10 21:00N 40°54' W 073°41'5 8.3
2017-Oct-10 20:27N 40°51' W 073°46'3 6.8
2017-Oct-10 20:00N 40°48' W 073°48'4 7.1
2017-Oct-10 19:30N 40°48' W 073°53'3 5.1
2017-Oct-10 19:00N 40°47' W 073°56'2 3.9
2017-Oct-10 18:30N 40°45' W 073°57'3 5.8
2017-Oct-10 18:01N 40°43' W 073°58'4 7.3
2017-Oct-10 17:30N 40°40' W 074°02'4 8.0
2017-Oct-10 17:01N 40°39' W 074°07'4 7.7
2017-Oct-10 16:31N 40°38' W 074°12'3 0.5
2017-Oct-10 10:45N 40°35' W 074°13'0 0.0
2017-Oct-10 10:00N 40°35' W 074°13'0 0.0
2017-Oct-10 09:30N 40°35' W 074°13'0 0.0
2017-Oct-10 09:00N 40°35' W 074°13'0 0.0
2017-Oct-10 08:30N 40°35' W 074°13'0 0.0
2017-Oct-10 07:58N 40°35' W 074°13'0 0.0
2017-Oct-10 07:30N 40°35' W 074°13'0 0.0
2017-Oct-10 07:01N 40°35' W 074°13'0 0.0
2017-Oct-10 06:30N 40°35' W 074°13'0 0.0
2017-Oct-10 05:58N 40°35' W 074°13'0 0.0
2017-Oct-10 04:45N 40°35' W 074°13'0 0.0
2017-Oct-09 21:12N 40°35' W 074°13'0 0.0
2017-Oct-09 20:57N 40°35' W 074°13'0 0.0
2017-Oct-09 20:30N 40°35' W 074°13'0 0.0
2017-Oct-09 20:01N 40°35' W 074°13'0 0.0
2017-Oct-09 19:30N 40°35' W 074°13'0 1.0
2017-Oct-09 19:00N 40°36' W 074°12'2 3.9
2017-Oct-09 18:30N 40°38' W 074°12'0 0.0
2017-Oct-09 18:01N 40°38' W 074°12'0 0.0
2017-Oct-09 17:30N 40°38' W 074°12'0 0.0
2017-Oct-09 17:00N 40°38' W 074°12'0 0.0
2017-Oct-09 16:31N 40°38' W 074°12'0 0.0
2017-Oct-09 16:00N 40°38' W 074°12'0 0.0
2017-Oct-09 15:30N 40°38' W 074°12'0 0.0
2017-Oct-09 15:00N 40°38' W 074°12'  
Track history (hours):
 
Tides and Currents Weather Stations Pressure Air Temp Water Temp Dewpoint Dewpoint Depression Visibility Wind Speed Wind Dir Waves Ship Positions

Austin Reinauer

Owner: REINAUER TRANSPORTATION CO. LLC, STATEN ISLAND, NY. More information available from US FCC via Universal Licensing System and Coast Guard Vessel Documentation Center.

Last reported at 2017-Oct-19 14:47 UTC. Time now 2017-Oct-19 15:16 UTC.
Position N 40°33' W 074°15'.

Length 33 m; draft 6.7 m.

Type: . MMSI: 366739920.

Date/timePositionNaut miles runAvg speedWind from/ knotsBaromVisibWave heightAir tempDewpointWater temp
2017-Oct-19 14:47N 40°33' W 074°15'0 0.0
2017-Oct-19 14:20N 40°33' W 074°15'0 0.0
2017-Oct-19 13:59N 40°33' W 074°15'0 0.0
2017-Oct-19 13:29N 40°33' W 074°15'0 0.0
2017-Oct-19 12:59N 40°33' W 074°15'0 0.0
2017-Oct-19 12:29N 40°33' W 074°15'0 0.0
2017-Oct-19 11:59N 40°33' W 074°15'0 0.0
2017-Oct-19 11:29N 40°33' W 074°15'0 0.0
2017-Oct-19 10:59N 40°33' W 074°15'0 0.0
2017-Oct-19 10:26N 40°33' W 074°15'0 0.0
2017-Oct-19 10:00N 40°33' W 074°15'0 0.0
2017-Oct-19 09:30N 40°33' W 074°15'0 0.0
2017-Oct-19 09:00N 40°33' W 074°15'0 0.0
2017-Oct-19 08:30N 40°33' W 074°15'0 0.0
2017-Oct-19 08:00N 40°33' W 074°15'0 0.0
2017-Oct-19 07:30N 40°33' W 074°15'0 0.0
2017-Oct-19 07:00N 40°33' W 074°15'0 0.0
2017-Oct-19 06:30N 40°33' W 074°15'0 0.0
2017-Oct-19 06:01N 40°33' W 074°15'0 0.0
2017-Oct-19 05:30N 40°33' W 074°15'0 0.0
2017-Oct-19 05:00N 40°33' W 074°15'0 0.0
2017-Oct-19 04:29N 40°33' W 074°15'0 0.0
2017-Oct-19 03:57N 40°33' W 074°15'0 0.0
2017-Oct-19 03:27N 40°33' W 074°15'0 0.0
2017-Oct-19 03:00N 40°33' W 074°15'0 0.0
2017-Oct-19 02:30N 40°33' W 074°15'0 0.0
2017-Oct-18 20:22N 40°33' W 074°15'0 0.1
2017-Oct-18 19:59N 40°33' W 074°15'1 2.2
2017-Oct-18 19:30N 40°33' W 074°14'3 6.5
2017-Oct-18 19:00N 40°36' W 074°12'3 6.9
2017-Oct-18 18:30N 40°39' W 074°09'3 5.3
2017-Oct-18 18:00N 40°39' W 074°05'2 4.1
2017-Oct-18 17:30N 40°39' W 074°03'0 0.7
2017-Oct-18 17:00N 40°40' W 074°03'0 0.6
2017-Oct-18 16:30N 40°40' W 074°03'4 9.0
2017-Oct-18 16:00N 40°43' W 073°58'611.9
2017-Oct-18 15:30N 40°48' W 073°54'5 9.9
2017-Oct-18 14:58N 40°48' W 073°47'4510.2
2017-Oct-18 10:33N 41°11' W 072°56'110.0
2017-Oct-18 10:24N 41°12' W 072°54'34 1.1
2017-Oct-17 02:41N 40°57' W 073°34'3 8.5
2017-Oct-17 02:17N 40°55' W 073°38'3 8.3
2017-Oct-17 01:58N 40°54' W 073°41'4 8.2
2017-Oct-17 01:30N 40°51' W 073°45'4 7.8
2017-Oct-17 01:00N 40°48' W 073°47'4 8.1
2017-Oct-17 00:30N 40°48' W 073°53'4 7.2
2017-Oct-16 23:59N 40°46' W 073°57'4 7.7
2017-Oct-16 23:30N 40°43' W 073°59'4 7.6
2017-Oct-16 23:00N 40°40' W 074°02'1 2.0
2017-Oct-16 22:30N 40°39' W 074°03'0 0.0
2017-Oct-16 22:00N 40°39' W 074°03'0 0.0
2017-Oct-16 21:30N 40°39' W 074°03'0 0.1
2017-Oct-16 21:00N 40°39' W 074°03'2 3.2
2017-Oct-16 20:30N 40°39' W 074°05'3 6.1
2017-Oct-16 20:00N 40°39' W 074°09'3 5.4
2017-Oct-16 19:30N 40°38' W 074°12'0 0.0
2017-Oct-16 18:59N 40°38' W 074°12'0 0.0
2017-Oct-16 18:26N 40°38' W 074°12'0 0.0
2017-Oct-16 17:59N 40°38' W 074°12'0 0.0
2017-Oct-16 17:29N 40°38' W 074°12'0 0.0
2017-Oct-16 16:59N 40°38' W 074°12'0 0.0
2017-Oct-16 16:29N 40°38' W 074°12'0 0.0
2017-Oct-16 15:59N 40°38' W 074°12'0 0.0
2017-Oct-16 15:29N 40°38' W 074°12'0 0.0
2017-Oct-16 14:56N 40°38' W 074°12'0 0.0
2017-Oct-16 13:59N 40°38' W 074°12'0 0.0
2017-Oct-16 13:29N 40°38' W 074°12'0 0.0
2017-Oct-16 12:59N 40°38' W 074°12'0 0.0
2017-Oct-16 12:29N 40°38' W 074°12'0 0.0
2017-Oct-16 12:00N 40°38' W 074°12'0 0.0
2017-Oct-16 11:29N 40°38' W 074°12'0 0.0
2017-Oct-16 11:00N 40°38' W 074°12'0 0.0
2017-Oct-16 10:30N 40°38' W 074°12'0 0.0
2017-Oct-16 10:00N 40°38' W 074°12'0 0.0
2017-Oct-16 09:30N 40°38' W 074°12'0 0.0
2017-Oct-16 09:00N 40°38' W 074°12'0 0.0
2017-Oct-16 08:29N 40°38' W 074°12'0 0.0
2017-Oct-16 08:00N 40°38' W 074°12'0 0.0
2017-Oct-16 07:30N 40°38' W 074°12'0 0.0
2017-Oct-16 07:00N 40°38' W 074°12'0 0.0
2017-Oct-16 06:30N 40°38' W 074°12'0 0.0
2017-Oct-16 06:00N 40°38' W 074°12'0 0.0
2017-Oct-16 05:30N 40°38' W 074°12'0 0.0
2017-Oct-16 05:01N 40°38' W 074°12'0 0.0
2017-Oct-16 04:30N 40°38' W 074°12'0 0.0
2017-Oct-16 04:00N 40°38' W 074°12'0 0.0
2017-Oct-16 03:30N 40°38' W 074°12'0 0.0
2017-Oct-16 03:00N 40°38' W 074°12'0 0.0
2017-Oct-16 02:30N 40°38' W 074°12'0 0.0
2017-Oct-16 02:01N 40°38' W 074°12'0 0.3
2017-Oct-16 01:30N 40°38' W 074°12'1 1.6
2017-Oct-16 01:01N 40°37' W 074°12'1 2.6
2017-Oct-16 00:29N 40°36' W 074°12'1 1.3
2017-Oct-16 00:01N 40°35' W 074°13'0 0.0
2017-Oct-15 23:30N 40°35' W 074°13'0 0.0
2017-Oct-15 23:00N 40°35' W 074°13'0 0.0
2017-Oct-15 22:30N 40°35' W 074°13'0 0.0
2017-Oct-15 22:00N 40°35' W 074°13'0 0.0
2017-Oct-15 21:30N 40°35' W 074°13'0 0.0
2017-Oct-15 21:00N 40°35' W 074°13'0 0.0
2017-Oct-15 20:30N 40°35' W 074°13'0 0.0
2017-Oct-15 19:58N 40°35' W 074°13'0 0.0
2017-Oct-15 19:30N 40°35' W 074°13'0 0.0
2017-Oct-15 18:59N 40°35' W 074°13'0 0.0
2017-Oct-15 18:30N 40°35' W 074°13'0 0.0
2017-Oct-15 18:00N 40°35' W 074°13'0 0.0
2017-Oct-15 17:30N 40°35' W 074°13'0 0.0
2017-Oct-15 17:00N 40°35' W 074°13'0 0.0
2017-Oct-15 16:30N 40°35' W 074°13'0 0.0
2017-Oct-15 16:00N 40°35' W 074°13'0 0.0
2017-Oct-15 15:30N 40°35' W 074°13'0 0.0
2017-Oct-15 15:00N 40°35' W 074°13'0 0.0
2017-Oct-15 14:00N 40°35' W 074°13'0 0.0
2017-Oct-15 13:30N 40°35' W 074°13'0 0.0
2017-Oct-15 12:59N 40°35' W 074°13'0 0.0
2017-Oct-15 12:30N 40°35' W 074°13'0 0.0
2017-Oct-15 12:00N 40°35' W 074°13'0 0.0
2017-Oct-15 11:30N 40°35' W 074°13'0 0.0
2017-Oct-15 11:00N 40°35' W 074°13'0 0.0
2017-Oct-15 10:30N 40°35' W 074°13'0 0.0
2017-Oct-15 10:00N 40°35' W 074°13'0 0.0
2017-Oct-15 09:30N 40°35' W 074°13'0 0.0
2017-Oct-15 09:00N 40°35' W 074°13'0 0.0
2017-Oct-15 08:30N 40°35' W 074°13'0 0.0
2017-Oct-15 08:00N 40°35' W 074°13'0 0.0
2017-Oct-15 07:30N 40°35' W 074°13'0 0.0
2017-Oct-15 07:00N 40°35' W 074°13'0 0.0
2017-Oct-15 06:30N 40°35' W 074°13'0 0.0
2017-Oct-15 06:00N 40°35' W 074°13'0 0.1
2017-Oct-15 05:30N 40°35' W 074°13'2 4.1
2017-Oct-15 05:01N 40°37' W 074°12'3 5.5
2017-Oct-15 04:31N 40°39' W 074°09'5 9.5
2017-Oct-15 04:00N 40°40' W 074°03'510.3
2017-Oct-15 03:31N 40°43' W 073°58'510.4
2017-Oct-15 03:00N 40°48' W 073°55'6 9.4
2017-Oct-15 02:24N 40°48' W 073°47'3810.0
2017-Oct-14 22:34N 41°07' W 073°03'610.7
2017-Oct-14 21:59N 41°11' W 072°57'37 1.6
2017-Oct-13 22:30N 40°54' W 073°40'4 8.4
2017-Oct-13 22:00N 40°52' W 073°45'4 8.3
2017-Oct-13 21:29N 40°48' W 073°47'4 8.4
2017-Oct-13 21:00N 40°48' W 073°53'4 6.9
2017-Oct-13 20:30N 40°46' W 073°57'3 6.5
2017-Oct-13 20:00N 40°43' W 073°58'4 8.5
2017-Oct-13 19:30N 40°40' W 074°02'4 6.9
2017-Oct-13 19:00N 40°39' W 074°06'4 7.5
2017-Oct-13 18:29N 40°39' W 074°11'2 4.9
2017-Oct-13 18:00N 40°36' W 074°12'4 6.3
2017-Oct-13 17:22N 40°33' W 074°15'1 2.6
2017-Oct-13 17:00N 40°32' W 074°15'0 0.0
2017-Oct-13 16:23N 40°32' W 074°15'0 0.0
2017-Oct-13 15:59N 40°32' W 074°15'0 0.0
2017-Oct-13 15:29N 40°32' W 074°15'0 0.0
2017-Oct-13 14:59N 40°32' W 074°15'0 0.0
2017-Oct-13 14:11N 40°32' W 074°15'0 0.0
2017-Oct-13 13:59N 40°32' W 074°15'0 0.0
2017-Oct-13 12:59N 40°32' W 074°15'0 0.0
2017-Oct-13 12:29N 40°32' W 074°15'0 0.0
2017-Oct-13 11:53N 40°32' W 074°15'0 0.0
2017-Oct-13 11:17N 40°32' W 074°15'0 0.0
2017-Oct-13 10:59N 40°32' W 074°15'0 0.0
2017-Oct-13 10:29N 40°32' W 074°15'0 0.0
2017-Oct-13 09:59N 40°32' W 074°15'0 0.0
2017-Oct-13 09:29N 40°32' W 074°15'0 0.0
2017-Oct-13 08:41N 40°32' W 074°15'0 0.0
2017-Oct-13 08:29N 40°32' W 074°15'0 0.0
2017-Oct-13 07:59N 40°32' W 074°15'0 0.0
2017-Oct-13 06:17N 40°32' W 074°15'0 0.0
2017-Oct-13 05:59N 40°32' W 074°15'0 0.0
2017-Oct-13 05:29N 40°32' W 074°15'0 0.0
2017-Oct-13 04:59N 40°32' W 074°15'0 0.0
2017-Oct-13 04:23N 40°32' W 074°15'0 0.0
2017-Oct-13 03:53N 40°32' W 074°15'0 0.0
2017-Oct-13 02:47N 40°32' W 074°15'0 0.0
2017-Oct-13 02:23N 40°32' W 074°15'0 0.0
2017-Oct-12 22:41N 40°32' W 074°15'0 0.0
2017-Oct-12 22:17N 40°32' W 074°15'0 0.0
2017-Oct-12 21:47N 40°32' W 074°15'0 0.0
2017-Oct-12 21:29N 40°32' W 074°15'0 0.0
2017-Oct-12 20:59N 40°32' W 074°15'0 0.0
2017-Oct-12 19:17N 40°32' W 074°15'0 0.0
2017-Oct-12 18:59N 40°32' W 074°15'0 0.0
2017-Oct-12 18:29N 40°32' W 074°15'0 0.0
2017-Oct-12 17:59N 40°32' W 074°15'0 0.0
2017-Oct-12 16:41N 40°32' W 074°15'0 0.0
2017-Oct-12 16:17N 40°32' W 074°15'3 0.6
2017-Oct-12 10:54N 40°30' W 074°12'4 7.7
2017-Oct-12 10:22N 40°29' W 074°06'3 7.3
2017-Oct-12 10:00N 40°29' W 074°03'4 8.6
2017-Oct-12 09:30N 40°33' W 074°02'611.0
2017-Oct-12 09:00N 40°39' W 074°02'4 7.5
2017-Oct-12 08:30N 40°42' W 074°00'4 8.9
2017-Oct-12 07:59N 40°46' W 073°57'6 6.4
2017-Oct-12 07:07N 40°48' W 073°50'2 7.9
2017-Oct-12 06:48N 40°48' W 073°47'20 0.6
2017-Oct-10 22:28N 40°60' W 073°26'4 9.3
2017-Oct-10 22:00N 40°58' W 073°31'6 8.8
2017-Oct-10 21:18N 40°55' W 073°38'2 8.5
2017-Oct-10 21:00N 40°54' W 073°41'5 8.3
2017-Oct-10 20:27N 40°51' W 073°46'3 6.8
2017-Oct-10 20:00N 40°48' W 073°48'4 7.1
2017-Oct-10 19:30N 40°48' W 073°53'3 5.1
2017-Oct-10 19:00N 40°47' W 073°56'2 3.9
2017-Oct-10 18:30N 40°45' W 073°57'3 5.8
2017-Oct-10 18:01N 40°43' W 073°58'4 7.3
2017-Oct-10 17:30N 40°40' W 074°02'4 8.0
2017-Oct-10 17:01N 40°39' W 074°07'4 7.7
2017-Oct-10 16:31N 40°38' W 074°12'3 0.5
2017-Oct-10 10:45N 40°35' W 074°13'0 0.0
2017-Oct-10 10:00N 40°35' W 074°13'0 0.0
2017-Oct-10 09:30N 40°35' W 074°13'0 0.0
2017-Oct-10 09:00N 40°35' W 074°13'0 0.0
2017-Oct-10 08:30N 40°35' W 074°13'0 0.0
2017-Oct-10 07:58N 40°35' W 074°13'0 0.0
2017-Oct-10 07:30N 40°35' W 074°13'0 0.0
2017-Oct-10 07:01N 40°35' W 074°13'0 0.0
2017-Oct-10 06:30N 40°35' W 074°13'0 0.0
2017-Oct-10 05:58N 40°35' W 074°13'0 0.0
2017-Oct-10 04:45N 40°35' W 074°13'0 0.0
2017-Oct-09 21:12N 40°35' W 074°13'0 0.0
2017-Oct-09 20:57N 40°35' W 074°13'0 0.0
2017-Oct-09 20:30N 40°35' W 074°13'0 0.0
2017-Oct-09 20:01N 40°35' W 074°13'0 0.0
2017-Oct-09 19:30N 40°35' W 074°13'0 1.0
2017-Oct-09 19:00N 40°36' W 074°12'2 3.9
2017-Oct-09 18:30N 40°38' W 074°12'0 0.0
2017-Oct-09 18:01N 40°38' W 074°12'0 0.0
2017-Oct-09 17:30N 40°38' W 074°12'0 0.0
2017-Oct-09 17:00N 40°38' W 074°12'0 0.0
2017-Oct-09 16:31N 40°38' W 074°12'0 0.0
2017-Oct-09 16:00N 40°38' W 074°12'0 0.0
2017-Oct-09 15:30N 40°38' W 074°12'0 0.0
2017-Oct-09 15:00N 40°38' W 074°12'  

Dump ship's entire track history